Time;durP1;ratioP1;P1;durP2;ratioP2;P2;SDS_P1;SDS_P2;PMS_P1;PMS_P2;Temp;Humidity;BMP_temperature;BMP_pressure;BME280_temperature;BME280_humidity;BME280_pressure;Samples;Min_cycle;Max_cycle;Signal;HPM_P1;HPM_P2
2021/04/20 00:02:03;;;;;;;9.93;8.40;;;;;;;4.83;85.70;99584.84;5013394;28;20034;-61
2021/04/20 00:04:28;;;;;;;9.50;8.25;;;;;;;4.82;85.13;99583.19;5013311;28;20491;-61
2021/04/20 00:06:53;;;;;;;9.15;7.88;;;;;;;4.69;84.86;99579.47;5013303;28;20392;-61
2021/04/20 00:09:19;;;;;;;9.70;8.23;;;;;;;4.52;84.84;99581.59;5013661;28;20479;-61
2021/04/20 00:11:44;;;;;;;9.60;8.35;;;;;;;4.39;86.03;99585.97;5011691;28;20046;-61
2021/04/20 00:14:11;;;;;;;10.90;8.77;;;;;;;4.44;87.38;99584.41;5013613;28;20030;-61
2021/04/20 00:16:36;;;;;;;10.13;8.30;;;;;;;4.50;86.07;99580.16;5013087;28;20381;-61
2021/04/20 00:19:03;;;;;;;10.55;9.07;;;;;;;4.56;86.76;99573.22;5012458;28;20050;-61
2021/04/20 00:21:29;;;;;;;9.57;8.02;;;;;;;4.33;85.61;99577.78;5013055;28;20076;-61
2021/04/20 00:23:54;;;;;;;9.48;7.35;;;;;;;4.16;84.88;99580.91;5013440;28;20038;-61
2021/04/20 00:26:20;;;;;;;9.05;7.45;;;;;;;4.05;84.87;99575.13;5012994;28;20045;-61
2021/04/20 00:28:45;;;;;;;8.20;7.05;;;;;;;3.93;85.89;99581.94;5013570;28;20112;-61
2021/04/20 00:31:11;;;;;;;9.35;7.72;;;;;;;3.95;86.70;99576.47;5013133;28;20061;-61
2021/04/20 00:33:36;;;;;;;8.32;7.38;;;;;;;3.95;87.83;99571.97;5012187;28;20433;-61
2021/04/20 00:36:01;;;;;;;9.65;8.05;;;;;;;3.93;87.16;99574.00;5010890;28;20489;-61
2021/04/20 00:38:27;;;;;;;8.63;7.32;;;;;;;3.84;85.58;99572.47;5013221;28;20036;-61
2021/04/20 00:40:52;;;;;;;8.98;7.80;;;;;;;3.75;86.21;99576.28;5012722;28;20037;-61
2021/04/20 00:43:18;;;;;;;10.10;8.60;;;;;;;3.80;87.31;99564.09;5013213;28;20033;-61
2021/04/20 00:45:43;;;;;;;12.77;9.75;;;;;;;3.87;88.42;99558.88;5011546;28;20053;-61
2021/04/20 00:48:09;;;;;;;13.57;10.73;;;;;;;3.91;88.85;99562.75;5013154;28;20069;-61
2021/04/20 00:50:39;;;;;;;15.07;11.50;;;;;;;4.19;88.91;99561.94;5012742;28;20085;-61
2021/04/20 00:53:05;;;;;;;16.65;12.60;;;;;;;4.36;88.13;99562.50;5011800;28;20022;-61
2021/04/20 00:55:31;;;;;;;12.05;10.23;;;;;;;4.24;87.05;99565.69;5013001;28;20042;-62
2021/04/20 00:57:56;;;;;;;10.02;8.57;;;;;;;3.93;85.33;99563.38;5013371;28;20026;-61
2021/04/20 01:00:29;;;;;;;10.32;8.93;;;;;;;3.64;86.33;99559.03;5012737;28;20034;-61
2021/04/20 01:02:54;;;;;;;12.63;10.45;;;;;;;3.70;88.35;99563.59;5013060;28;20049;-61
2021/04/20 01:05:32;;;;;;;13.07;10.38;;;;;;;3.70;89.00;99560.13;5012783;28;20042;-61
2021/04/20 01:07:58;;;;;;;13.52;10.02;;;;;;;3.65;87.77;99556.22;5012908;28;20535;-61
2021/04/20 01:10:24;;;;;;;11.73;9.25;;;;;;;3.54;87.90;99556.69;5011672;28;20050;-61
2021/04/20 01:12:49;;;;;;;11.55;9.40;;;;;;;3.48;87.77;99560.13;5012770;28;20524;-61
2021/04/20 01:15:15;;;;;;;10.60;8.80;;;;;;;3.39;87.75;99561.22;5011420;28;20034;-61
2021/04/20 01:17:41;;;;;;;11.90;9.25;;;;;;;3.28;89.04;99565.19;5012863;28;20030;-62
2021/04/20 01:20:08;;;;;;;16.50;11.98;;;;;;;3.44;90.41;99564.13;5012467;28;20026;-61
2021/04/20 01:22:35;;;;;;;15.48;11.80;;;;;;;3.52;90.39;99561.38;5012663;28;20022;-62
2021/04/20 01:25:01;;;;;;;13.60;10.95;;;;;;;3.58;89.13;99560.63;5011536;28;20030;-62
2021/04/20 01:27:26;;;;;;;12.70;10.27;;;;;;;3.55;89.21;99555.69;5011286;28;20061;-62
2021/04/20 01:29:53;;;;;;;14.48;11.82;;;;;;;3.53;90.00;99556.91;4995353;28;20026;-62
2021/04/20 01:32:19;;;;;;;16.75;12.45;;;;;;;3.60;90.90;99555.97;5012209;28;20038;-62
2021/04/20 01:34:45;;;;;;;14.73;11.45;;;;;;;3.68;89.85;99555.00;4995077;28;20034;-62
2021/04/20 01:37:10;;;;;;;13.93;11.38;;;;;;;3.70;90.28;99568.91;5011020;28;20042;-62
2021/04/20 01:39:35;;;;;;;11.88;9.70;;;;;;;3.59;89.43;99558.78;5012594;28;20461;-62
2021/04/20 01:42:01;;;;;;;14.70;9.65;;;;;;;3.45;88.70;99555.19;4994513;28;20049;-62
2021/04/20 01:44:26;;;;;;;11.80;9.10;;;;;;;3.38;88.80;99562.25;5011614;28;20037;-62
2021/04/20 01:46:52;;;;;;;12.38;10.60;;;;;;;3.31;89.53;99553.41;5011022;28;20093;-61
2021/04/20 01:49:17;;;;;;;10.57;8.88;;;;;;;3.20;88.73;99552.06;5015968;28;20086;-62
2021/04/20 01:51:43;;;;;;;10.45;8.63;;;;;;;3.12;88.58;99555.66;5014588;28;20042;-62
2021/04/20 01:54:08;;;;;;;12.82;10.68;;;;;;;2.99;88.99;99556.28;5016083;28;20040;-62
2021/04/20 01:56:33;;;;;;;12.85;10.07;;;;;;;3.00;90.61;99549.19;5015722;28;20045;-62
2021/04/20 01:58:59;;;;;;;14.10;10.15;;;;;;;3.01;89.76;99554.28;5014805;28;20045;-62
2021/04/20 02:01:26;;;;;;;13.05;9.98;;;;;;;3.01;90.22;99549.00;4995929;28;20044;-62
2021/04/20 02:03:51;;;;;;;12.18;10.05;;;;;;;2.95;89.76;99551.56;5015962;28;20025;-62
2021/04/20 02:06:18;;;;;;;13.52;10.45;;;;;;;3.02;90.91;99560.41;5014225;28;20042;-61
2021/04/20 02:08:45;;;;;;;14.10;11.05;;;;;;;2.88;90.24;99548.84;5014720;28;20037;-62
2021/04/20 02:11:11;;;;;;;19.50;14.13;;;;;;;3.13;91.06;99549.34;5015394;28;20498;-61
2021/04/20 02:13:37;;;;;;;16.33;12.63;;;;;;;3.09;90.57;99556.00;5014294;28;20123;-61
2021/04/20 02:16:03;;;;;;;16.60;11.68;;;;;;;3.09;90.56;99556.00;5015554;28;20073;-62
2021/04/20 02:18:28;;;;;;;16.65;13.52;;;;;;;3.18;90.66;99559.38;5014340;28;20018;-61
2021/04/20 02:20:54;;;;;;;18.88;13.88;;;;;;;3.30;90.45;99549.13;5014081;28;20044;-62
2021/04/20 02:23:20;;;;;;;19.25;13.40;;;;;;;3.34;90.59;99548.53;5014385;28;20097;-62
2021/04/20 02:25:46;;;;;;;14.00;10.75;;;;;;;3.12;88.56;99547.72;5013932;28;20042;-62
2021/04/20 02:28:11;;;;;;;14.43;11.52;;;;;;;2.99;88.94;99550.19;4998044;28;20034;-61
2021/04/20 02:30:37;;;;;;;12.95;10.15;;;;;;;2.87;89.20;99547.22;4997580;28;20385;-62
2021/04/20 02:33:03;;;;;;;12.25;9.65;;;;;;;2.76;88.27;99548.47;5014140;28;20084;-62
2021/04/20 02:35:29;;;;;;;10.15;8.55;;;;;;;2.64;87.84;99554.41;4997316;28;20041;-62
2021/04/20 02:37:54;;;;;;;10.45;8.82;;;;;;;2.57;87.93;99546.38;5015264;28;20342;-61
2021/04/20 02:40:24;;;;;;;13.07;9.38;;;;;;;2.56;89.24;99550.03;4997258;28;20076;-61
2021/04/20 02:42:50;;;;;;;11.30;9.52;;;;;;;2.56;89.46;99545.56;5015558;28;20025;-62
2021/04/20 02:45:15;;;;;;;14.25;11.00;;;;;;;2.59;90.71;99541.72;5013766;28;20373;-62
2021/04/20 02:47:41;;;;;;;16.55;12.00;;;;;;;2.59;91.49;99545.19;5015097;28;20030;-62
2021/04/20 02:50:11;;;;;;;15.48;12.02;;;;;;;2.60;91.50;99556.63;5014651;28;20034;-62
2021/04/20 02:52:36;;;;;;;17.20;12.57;;;;;;;2.67;91.69;99552.25;5015067;28;20026;-61
2021/04/20 02:55:06;;;;;;;14.15;10.68;;;;;;;2.53;90.08;99545.94;5014689;28;20068;-62
2021/04/20 02:57:34;;;;;;;13.90;10.98;;;;;;;2.38;89.77;99540.63;5013769;28;20088;-61
2021/04/20 02:59:59;;;;;;;11.55;9.50;;;;;;;2.29;89.30;99539.06;5012921;28;20057;-62
2021/04/20 03:02:25;;;;;;;10.93;8.55;;;;;;;2.16;88.68;99544.16;4996854;28;20045;-61
2021/04/20 03:04:50;;;;;;;11.73;9.60;;;;;;;2.00;88.63;99531.09;4997262;28;20026;-61
2021/04/20 03:07:16;;;;;;;13.25;9.90;;;;;;;2.06;90.98;99538.31;5013126;28;20129;-61
2021/04/20 03:09:41;;;;;;;15.30;11.02;;;;;;;2.14;91.07;99536.41;4997247;28;20036;-62
2021/04/20 03:12:07;;;;;;;19.30;11.40;;;;;;;2.28;92.29;99541.91;4996564;28;20077;-61
2021/04/20 03:14:33;;;;;;;16.08;12.02;;;;;;;2.34;91.68;99536.69;5013365;28;20029;-62
2021/04/20 03:16:58;;;;;;;14.68;10.93;;;;;;;2.20;89.79;99540.19;4996536;28;20041;-61
2021/04/20 03:19:23;;;;;;;19.30;13.68;;;;;;;2.37;92.17;99536.38;4997000;28;20026;-62
2021/04/20 03:21:50;;;;;;;16.67;12.88;;;;;;;2.34;91.80;99536.69;5012911;28;20034;-61
2021/04/20 03:24:30;;;;;;;13.98;11.27;;;;;;;2.22;90.92;99532.88;4997049;28;20032;-62
2021/04/20 03:26:56;;;;;;;11.70;10.05;;;;;;;2.09;90.11;99543.25;5013906;28;20038;-61
2021/04/20 03:29:21;;;;;;;12.88;10.23;;;;;;;1.97;90.13;99534.91;5014317;28;20076;-61
2021/04/20 03:31:46;;;;;;;11.02;9.43;;;;;;;1.87;89.68;99537.84;4996214;28;20069;-62
2021/04/20 03:34:24;;;;;;;9.80;8.60;;;;;;;1.85;89.88;99536.38;4996724;28;20021;-62
2021/04/20 03:36:55;;;;;;;11.75;9.43;;;;;;;1.81;89.39;99540.34;5013787;28;20044;-62
2021/04/20 03:39:21;;;;;;;;;;;;;;;1.82;89.54;99539.34;4997488;28;20029;-62
2021/04/20 03:42:03;;;;;;;11.38;9.07;;;;;;;1.73;89.95;99531.50;5013708;28;20005;-61
2021/04/20 03:44:42;;;;;;;11.50;9.75;;;;;;;1.66;89.94;99532.38;4997049;28;20029;-61
2021/04/20 03:47:11;;;;;;;15.60;11.40;;;;;;;1.76;91.64;99532.16;4995985;28;20038;-61
2021/04/20 03:49:37;;;;;;;13.68;10.68;;;;;;;1.74;90.80;99529.66;5013877;28;20408;-62
2021/04/20 03:52:03;;;;;;;13.48;10.95;;;;;;;1.69;90.77;99534.66;5012365;28;20034;-62
2021/04/20 03:54:30;;;;;;;15.82;11.32;;;;;;;1.75;91.59;99531.34;5012609;28;20022;-62
2021/04/20 03:56:57;;;;;;;15.90;12.20;;;;;;;1.71;91.66;99530.84;5013608;28;20140;-62
2021/04/20 03:59:23;;;;;;;18.80;11.57;;;;;;;1.68;91.83;99520.63;5012934;28;20064;-61
2021/04/20 04:01:49;;;;;;;14.65;11.35;;;;;;;1.67;91.93;99528.72;5013400;28;20117;-61
2021/04/20 04:04:16;;;;;;;13.18;10.55;;;;;;;1.63;91.46;99522.19;5012009;28;20018;-61
2021/04/20 04:06:42;;;;;;;13.07;10.25;;;;;;;1.62;90.88;99531.09;5011809;28;20038;-61
2021/04/20 04:09:09;;;;;;;13.35;10.35;;;;;;;1.53;90.48;99526.88;4996117;28;20502;-61
2021/04/20 04:11:34;;;;;;;11.70;9.80;;;;;;;1.54;90.39;99531.16;5011952;28;20622;-61
2021/04/20 04:14:00;;;;;;;12.18;9.55;;;;;;;1.44;89.66;99537.47;4996227;28;20038;-62
2021/04/20 04:16:25;;;;;;;13.60;10.02;;;;;;;1.45;90.62;99541.78;4995198;28;20038;-61
2021/04/20 04:18:52;;;;;;;12.57;10.20;;;;;;;1.46;89.87;99542.59;5012355;28;20034;-61
2021/04/20 04:21:21;;;;;;;12.50;10.35;;;;;;;1.43;90.98;99545.59;5011812;28;20041;-62
2021/04/20 04:23:47;;;;;;;11.48;9.68;;;;;;;1.54;91.08;99544.38;5012428;28;20026;-62
2021/04/20 04:26:19;;;;;;;13.50;10.77;;;;;;;1.55;89.93;99551.28;5012131;28;20092;-62
2021/04/20 04:28:47;;;;;;;17.10;12.07;;;;;;;1.64;91.12;99542.31;5012517;28;20452;-61
2021/04/20 04:31:12;;;;;;;18.20;13.02;;;;;;;1.65;91.39;99549.25;4995614;28;20124;-62
2021/04/20 04:33:39;;;;;;;23.92;15.68;;;;;;;1.85;91.63;99546.94;4995681;28;20026;-61
2021/04/20 04:36:05;;;;;;;39.20;18.55;;;;;;;2.10;92.35;99550.19;4993602;28;20038;-61
2021/04/20 04:38:30;;;;;;;24.13;15.45;;;;;;;2.13;91.87;99547.19;5008768;28;20022;-62
2021/04/20 04:40:58;;;;;;;16.67;12.88;;;;;;;2.04;90.25;99545.59;5008382;28;20038;-62
2021/04/20 04:43:23;;;;;;;14.50;11.52;;;;;;;1.97;89.45;99544.69;4992807;28;20481;-63
2021/04/20 04:45:49;;;;;;;14.55;11.23;;;;;;;2.21;90.22;99541.81;4991941;28;20030;-62
2021/04/20 04:48:15;;;;;;;13.75;11.25;;;;;;;2.40;88.32;99539.63;4993566;28;20034;-62
2021/04/20 04:50:40;;;;;;;15.07;11.27;;;;;;;2.77;86.53;99549.28;4991950;28;20452;-62
2021/04/20 04:53:06;;;;;;;11.30;9.38;;;;;;;3.06;83.39;99550.28;4993812;28;20035;-62
2021/04/20 04:55:32;;;;;;;12.10;9.43;;;;;;;2.92;82.74;99543.97;4993062;28;20046;-62
2021/04/20 04:57:57;;;;;;;9.75;8.15;;;;;;;3.16;80.88;99542.84;4992353;28;20022;-62
2021/04/20 05:00:23;;;;;;;10.63;8.77;;;;;;;3.44;79.53;99541.13;5008270;28;20046;-62
2021/04/20 05:02:48;;;;;;;10.00;8.35;;;;;;;3.39;79.71;99540.84;5008927;28;20030;-62
2021/04/20 05:05:15;;;;;;;9.88;8.43;;;;;;;3.41;80.79;99543.31;4991866;28;20022;-62
2021/04/20 05:07:42;;;;;;;9.90;8.25;;;;;;;3.18;80.02;99543.47;5008276;28;20034;-62
2021/04/20 05:10:09;;;;;;;10.63;8.75;;;;;;;3.54;79.73;99545.28;5008047;28;20034;-62
2021/04/20 05:12:34;;;;;;;9.80;8.32;;;;;;;3.67;78.88;99548.88;4993286;28;20054;-62
2021/04/20 05:15:15;;;;;;;8.68;7.30;;;;;;;4.85;72.92;99546.44;4992178;28;20033;-62
2021/04/20 05:17:41;;;;;;;10.10;8.15;;;;;;;5.69;75.40;99547.94;5007606;28;20056;-62
2021/04/20 05:20:07;;;;;;;7.93;7.00;;;;;;;5.93;69.51;99545.69;4992626;28;20109;-62
2021/04/20 05:22:34;;;;;;;7.97;6.88;;;;;;;6.67;67.38;99545.41;4994238;28;20026;-62
2021/04/20 05:25:01;;;;;;;8.23;6.13;;;;;;;7.33;62.49;99548.84;5012198;28;20030;-62
2021/04/20 05:27:26;;;;;;;7.82;6.80;;;;;;;7.16;63.51;99548.50;5011811;28;20055;-62
2021/04/20 05:29:52;;;;;;;6.97;6.28;;;;;;;7.32;64.08;99553.34;5012187;28;20033;-62
2021/04/20 05:32:17;;;;;;;7.68;6.88;;;;;;;6.21;71.15;99551.63;4996466;28;20477;-62
2021/04/20 05:34:43;;;;;;;7.22;6.35;;;;;;;6.21;71.72;99553.47;5011908;28;20030;-62
2021/04/20 05:37:08;;;;;;;7.10;6.05;;;;;;;7.74;62.26;99551.06;4995238;28;20077;-62
2021/04/20 05:39:34;;;;;;;7.07;6.20;;;;;;;7.92;59.74;99558.31;4996982;28;20022;-62
2021/04/20 05:41:59;;;;;;;6.30;5.57;;;;;;;8.89;56.15;99551.69;4996335;28;20093;-62
2021/04/20 05:44:24;;;;;;;6.40;5.50;;;;;;;8.91;55.74;99554.94;4996823;28;20385;-62
2021/04/20 05:46:50;;;;;;;6.35;5.60;;;;;;;8.63;57.20;99558.94;4996248;28;20473;-62
2021/04/20 05:49:16;;;;;;;7.70;5.70;;;;;;;8.72;57.01;99552.28;4996562;28;20077;-63
2021/04/20 05:51:41;;;;;;;6.63;5.88;;;;;;;8.61;58.39;99555.66;5011155;28;20122;-62
2021/04/20 05:54:08;;;;;;;6.55;5.68;;;;;;;9.51;56.90;99563.03;4996589;28;20037;-62
2021/04/20 05:56:33;;;;;;;6.50;5.80;;;;;;;10.42;53.33;99560.19;4996070;28;20545;-63
2021/04/20 05:59:05;;;;;;;7.53;6.00;;;;;;;11.33;52.18;99565.84;4996540;28;20037;-62
2021/04/20 06:01:37;;;;;;;7.90;6.28;;;;;;;11.44;50.64;99568.50;4996093;28;20042;-63
2021/04/20 06:04:05;;;;;;;8.43;6.70;;;;;;;12.20;49.46;99570.91;5005685;28;20025;-63
2021/04/20 06:06:30;;;;;;;7.30;6.13;;;;;;;12.13;48.82;99575.66;5015569;28;20088;-63
2021/04/20 06:08:56;;;;;;;7.15;5.90;;;;;;;12.09;48.36;99569.13;5014655;28;20038;-63
2021/04/20 06:11:21;;;;;;;7.07;6.18;;;;;;;12.35;48.07;99564.16;4997641;28;20038;-63
2021/04/20 06:13:47;;;;;;;7.05;6.35;;;;;;;13.01;46.63;99567.75;5014654;28;20084;-62
2021/04/20 06:16:12;;;;;;;9.60;6.68;;;;;;;13.63;45.35;99565.78;4997600;28;20038;-62
2021/04/20 06:18:38;;;;;;;8.25;6.40;;;;;;;14.68;41.83;99571.50;5015705;28;20057;-62
2021/04/20 06:21:04;;;;;;;6.90;6.00;;;;;;;13.95;43.46;99579.28;5014227;28;20038;-62
2021/04/20 06:23:29;;;;;;;6.32;5.72;;;;;;;13.69;44.59;99575.56;5014364;28;20535;-62
2021/04/20 06:25:59;;;;;;;5.88;5.28;;;;;;;13.70;44.56;99577.16;5014001;28;20038;-62
2021/04/20 06:28:25;;;;;;;6.35;5.65;;;;;;;13.25;46.32;99570.19;5014370;28;20025;-62
2021/04/20 06:30:51;;;;;;;6.82;5.63;;;;;;;13.26;46.20;99577.22;5015020;28;20122;-62
2021/04/20 06:33:16;;;;;;;6.60;5.90;;;;;;;13.70;46.16;99577.16;5014360;28;20029;-62
2021/04/20 06:35:42;;;;;;;6.28;5.68;;;;;;;13.91;45.02;99578.19;4996802;28;20034;-62
2021/04/20 06:38:11;;;;;;;7.55;5.75;;;;;;;14.86;42.95;99583.75;4997782;28;20464;-62
2021/04/20 06:40:37;;;;;;;7.50;5.75;;;;;;;15.01;42.58;99581.13;5013663;28;20493;-63
2021/04/20 06:43:10;;;;;;;8.27;5.78;;;;;;;14.37;44.42;99582.06;4981594;28;20033;-62
2021/04/20 06:45:55;;;;;;;5.85;5.25;;;;;;;14.68;44.49;99566.13;4997724;28;20049;-62
2021/04/20 06:48:46;;;;;;;7.05;5.57;;;;;;;15.25;43.62;99569.88;5015315;28;20038;-62
2021/04/20 06:51:16;;;;;;;5.97;5.07;;;;;;;15.00;43.89;99573.28;5013612;28;20038;-62
2021/04/20 06:53:48;;;;;;;;;;;;;;;15.51;43.77;99573.47;5015487;28;20026;-62
2021/04/20 06:56:32;;;;;;;5.55;5.05;;;;;;;15.39;44.15;99570.19;5013533;28;20006;-62
2021/04/20 06:59:26;;;;;;;6.18;5.40;;;;;;;16.13;42.18;99569.78;5014012;28;20034;-62
2021/04/20 07:01:56;;;;;;;5.53;4.82;;;;;;;15.65;43.61;99569.19;5014553;28;20084;-62
2021/04/20 07:04:39;;;;;;;6.32;4.90;;;;;;;15.99;43.44;99567.91;5014859;28;20033;-62
2021/04/20 07:07:11;;;;;;;6.05;5.45;;;;;;;15.78;43.58;99556.28;5014315;28;20038;-62
2021/04/20 07:09:40;;;;;;;7.93;5.60;;;;;;;16.23;42.83;99560.06;5014885;28;20384;-62
2021/04/20 07:12:06;;;;;;;6.63;5.45;;;;;;;16.91;41.40;99563.19;5012909;28;20053;-62
2021/04/20 07:14:40;;;;;;;5.97;5.38;;;;;;;16.59;40.98;99564.31;5013428;28;20062;-62
2021/04/20 07:17:24;;;;;;;6.57;5.78;;;;;;;16.61;40.81;99559.44;5012920;28;20545;-62
2021/04/20 07:20:28;;;;;;;7.28;5.88;;;;;;;16.56;41.90;99562.16;5013317;28;20033;-62
2021/04/20 07:23:15;;;;;;;6.28;5.68;;;;;;;16.20;43.77;99560.59;5014070;28;20100;-62
2021/04/20 07:25:59;;;;;;;6.32;5.55;;;;;;;16.40;41.73;99563.28;5013991;28;20049;-62
2021/04/20 07:28:35;;;;;;;6.20;5.60;;;;;;;16.54;42.45;99567.03;5013333;28;20037;-62
2021/04/20 07:31:57;;;;;;;6.75;5.38;;;;;;;16.30;43.02;99563.28;4996943;28;20043;-62
2021/04/20 07:34:28;;;;;;;7.00;5.80;;;;;;;16.96;41.98;99562.38;4953893;29;20198;-62
2021/04/20 07:37:04;;;;;;;7.68;6.20;;;;;;;16.57;42.51;99558.41;4922164;29;20449;-62
2021/04/20 07:39:47;;;;;;;6.70;6.00;;;;;;;15.94;44.87;99561.41;4979586;28;20137;-62
2021/04/20 07:42:22;;;;;;;6.57;5.57;;;;;;;16.17;43.54;99557.38;4997045;28;20045;-62
2021/04/20 07:45:26;;;;;;;7.35;6.15;;;;;;;16.07;45.33;99557.34;5014025;28;20507;-62
2021/04/20 07:47:59;;;;;;;6.55;5.95;;;;;;;16.39;44.44;99553.53;4972407;28;20141;-62
2021/04/20 07:50:28;;;;;;;6.45;5.85;;;;;;;16.27;44.38;99561.94;4956447;28;20375;-62
2021/04/20 07:53:00;;;;;;;6.07;5.47;;;;;;;16.83;43.41;99549.44;4994809;28;20052;-62
2021/04/20 07:55:30;;;;;;;6.93;6.22;;;;;;;17.07;42.79;99557.72;4980273;28;20037;-62
2021/04/20 07:58:20;;;;;;;;;;;;;;;15.99;44.32;99557.09;4997529;28;20021;-62
2021/04/20 08:01:02;;;;;;;7.00;6.30;;;;;;;14.92;48.11;99555.69;5013892;28;20351;-62
2021/04/20 08:03:38;;;;;;;6.72;5.95;;;;;;;15.92;45.81;99558.16;4981583;28;20076;-62
2021/04/20 08:06:14;;;;;;;7.47;6.00;;;;;;;16.17;45.33;99559.25;4996051;28;20046;-62
2021/04/20 08:08:51;;;;;;;7.15;6.20;;;;;;;16.11;46.14;99554.94;4996243;28;20488;-63
2021/04/20 08:11:21;;;;;;;6.80;5.65;;;;;;;16.92;44.03;99553.97;4995881;28;20082;-63
2021/04/20 08:13:57;;;;;;;6.85;6.07;;;;;;;16.66;44.07;99553.22;5012382;28;20058;-63
2021/04/20 08:16:41;;;;;;;6.95;5.68;;;;;;;16.67;44.70;99554.03;4995911;28;20046;-63
2021/04/20 08:19:15;;;;;;;7.28;6.00;;;;;;;15.73;46.48;99549.78;5013278;28;20030;-63
2021/04/20 08:21:48;;;;;;;6.78;6.07;;;;;;;16.25;44.85;99555.16;4996286;28;20122;-63
2021/04/20 08:24:36;;;;;;;6.78;6.18;;;;;;;16.25;45.66;99547.06;4996565;28;20034;-63
2021/04/20 08:27:07;;;;;;;6.80;6.10;;;;;;;16.97;44.24;99545.84;5012988;28;20044;-63
2021/04/20 08:29:32;;;;;;;6.65;5.95;;;;;;;16.25;45.86;99549.75;5013258;28;20469;-63
2021/04/20 08:32:04;;;;;;;6.50;5.88;;;;;;;16.52;45.54;99539.44;5011812;28;20053;-63
2021/04/20 08:34:33;;;;;;;6.53;5.93;;;;;;;16.14;46.34;99538.97;5012310;28;20041;-63
2021/04/20 08:37:01;;;;;;;7.28;6.30;;;;;;;17.29;42.97;99535.69;5012902;28;20038;-63
2021/04/20 08:39:58;;;;;;;6.85;6.15;;;;;;;16.72;44.12;99532.34;5013383;28;20136;-63
2021/04/20 08:42:32;;;;;;;6.70;5.97;;;;;;;17.82;43.15;99539.44;5011504;28;20046;-63
2021/04/20 08:45:21;;;;;;;6.45;5.75;;;;;;;18.31;42.21;99535.75;5012155;28;20061;-63
2021/04/20 08:47:58;;;;;;;10.10;6.38;;;;;;;17.35;43.39;99529.16;5011527;28;20084;-63
2021/04/20 08:50:25;;;;;;;8.52;6.07;;;;;;;17.25;43.86;99530.03;5012677;28;20043;-63
2021/04/20 08:53:24;;;;;;;6.85;6.10;;;;;;;17.15;44.35;99538.19;4995760;28;20469;-63
2021/04/20 08:55:53;;;;;;;6.53;5.65;;;;;;;18.93;40.05;99532.41;5011345;28;20496;-64
2021/04/20 08:59:11;;;;;;;8.85;5.88;;;;;;;17.28;42.12;99526.75;5013961;28;20428;-63
2021/04/20 09:01:46;;;;;;;6.00;5.40;;;;;;;17.68;42.25;99533.81;4909824;29;20118;-63
2021/04/20 09:04:17;;;;;;;7.15;5.68;;;;;;;18.65;40.44;99532.16;4985391;28;20041;-64
2021/04/20 09:06:52;;;;;;;6.95;5.35;;;;;;;17.46;41.58;99523.38;4999582;28;20057;-64
2021/04/20 09:09:23;;;;;;;6.00;5.40;;;;;;;17.68;43.11;99522.97;5015605;28;20481;-64
2021/04/20 09:12:00;;;;;;;6.32;5.65;;;;;;;18.45;40.40;99529.69;4999511;28;20036;-63
2021/04/20 09:14:29;;;;;;;7.55;5.70;;;;;;;18.71;39.72;99528.28;5015819;28;20508;-64
2021/04/20 09:16:58;;;;;;;5.88;5.20;;;;;;;19.13;38.83;99529.44;5015240;28;20188;-64
2021/04/20 09:19:25;;;;;;;6.00;5.40;;;;;;;19.29;38.48;99527.31;4999428;28;20029;-64
2021/04/20 09:22:04;;;;;;;5.82;5.20;;;;;;;19.28;37.72;99530.34;5016346;28;20030;-64
2021/04/20 09:24:36;;;;;;;5.18;4.68;;;;;;;19.33;37.06;99522.94;5016832;28;20026;-64
2021/04/20 09:27:09;;;;;;;5.95;4.95;;;;;;;19.77;36.29;99531.84;4982891;28;20045;-64
2021/04/20 09:29:38;;;;;;;5.75;4.80;;;;;;;18.12;38.43;99526.69;5016672;28;20041;-62
2021/04/20 09:32:17;;;;;;;5.60;4.75;;;;;;;18.57;39.93;99524.66;5014767;28;20034;-63
2021/04/20 09:34:42;;;;;;;5.70;4.75;;;;;;;19.09;38.61;99522.97;5015295;28;20037;-63
2021/04/20 09:37:08;;;;;;;5.68;5.07;;;;;;;19.32;37.76;99525.94;5015966;28;20026;-62
2021/04/20 09:39:35;;;;;;;5.38;4.88;;;;;;;18.10;39.79;99523.50;5015232;28;20025;-62
2021/04/20 09:42:01;;;;;;;8.10;4.97;;;;;;;19.72;36.94;99529.19;4998541;28;20034;-63
2021/04/20 09:44:51;;;;;;;4.95;4.45;;;;;;;19.78;36.06;99525.28;5015116;28;20170;-63
2021/04/20 09:47:47;;;;;;;5.20;4.70;;;;;;;19.45;36.76;99519.78;5015770;28;20061;-63
2021/04/20 09:50:33;;;;;;;5.30;4.70;;;;;;;20.04;34.20;99528.38;5014647;28;20240;-63
2021/04/20 09:53:23;;;;;;;5.15;4.55;;;;;;;18.89;36.87;99523.22;5014886;28;20036;-63
2021/04/20 09:56:01;;;;;;;5.60;4.70;;;;;;;19.50;36.00;99527.06;5015894;28;20120;-63
2021/04/20 09:58:26;;;;;;;5.72;4.72;;;;;;;18.43;38.18;99521.00;5016086;28;20500;-63
2021/04/20 10:00:52;;;;;;;6.43;4.60;;;;;;;18.62;38.36;99524.59;4998032;28;20067;-63
2021/04/20 10:03:39;;;;;;;5.70;4.80;;;;;;;18.95;37.75;99527.50;4998377;28;20022;-63
2021/04/20 10:06:34;;;;;;;5.32;4.40;;;;;;;19.89;35.30;99528.66;5014457;28;20173;-64
2021/04/20 10:09:25;;;;;;;6.05;4.70;;;;;;;19.43;36.13;99532.84;5014142;28;20124;-63
2021/04/20 10:11:58;;;;;;;6.10;4.45;;;;;;;19.46;35.65;99526.00;4987307;28;20042;-63
2021/04/20 10:14:31;;;;;;;5.45;4.72;;;;;;;19.73;34.66;99518.03;5014236;28;20036;-64
2021/04/20 10:17:38;;;;;;;5.88;4.88;;;;;;;18.10;37.23;99521.59;5014161;28;20034;-64
2021/04/20 10:20:27;;;;;;;5.22;4.72;;;;;;;17.01;40.92;99519.84;4954793;28;20034;-64
2021/04/20 10:23:19;;;;;;;5.47;4.57;;;;;;;17.41;39.38;99504.44;5013824;28;20498;-64
2021/04/20 10:25:49;;;;;;;5.15;4.65;;;;;;;16.82;40.70;99508.00;5015290;28;20472;-63
2021/04/20 10:28:27;;;;;;;4.97;4.45;;;;;;;16.82;41.42;99505.28;5015681;28;20483;-64
2021/04/20 10:30:53;;;;;;;6.25;5.00;;;;;;;18.01;38.93;99508.91;5015158;28;20425;-64
2021/04/20 10:33:21;;;;;;;5.70;4.22;;;;;;;18.92;36.71;99500.91;4997951;28;20022;-64
2021/04/20 10:35:47;;;;;;;5.18;4.40;;;;;;;19.74;34.39;99500.59;4997497;28;20034;-64
2021/04/20 10:38:16;;;;;;;5.45;4.22;;;;;;;19.89;33.76;99496.81;5014114;28;20041;-64
2021/04/20 10:40:44;;;;;;;4.30;3.67;;;;;;;20.53;32.80;99497.03;5013469;28;20029;-63
2021/04/20 10:43:15;;;;;;;4.30;3.83;;;;;;;21.43;31.25;99504.75;4998362;28;20037;-63
2021/04/20 10:45:41;;;;;;;6.97;4.40;;;;;;;20.35;32.49;99498.75;5013609;28;20045;-63
2021/04/20 10:48:08;;;;;;;4.72;4.07;;;;;;;19.59;33.30;99488.03;4997603;28;20042;-64
2021/04/20 10:50:34;;;;;;;4.55;4.15;;;;;;;19.68;33.48;99490.09;4997144;28;20034;-63
2021/04/20 10:53:04;;;;;;;5.50;4.05;;;;;;;19.72;33.57;99491.94;5015353;28;20488;-63
2021/04/20 10:55:32;;;;;;;5.70;3.92;;;;;;;18.34;33.50;99485.53;5013398;28;20042;-63
2021/04/20 10:57:58;;;;;;;6.05;4.05;;;;;;;18.74;35.15;99495.13;4997430;28;20060;-63
2021/04/20 11:00:26;;;;;;;4.35;3.40;;;;;;;19.06;33.85;99482.00;4997183;28;20038;-64
2021/04/20 11:02:52;;;;;;;4.32;3.20;;;;;;;19.39;31.85;99474.72;5013959;28;20037;-63
2021/04/20 11:05:21;;;;;;;6.22;3.85;;;;;;;19.52;32.32;99471.28;4996977;28;20385;-64
2021/04/20 11:07:47;;;;;;;5.15;4.20;;;;;;;19.85;31.84;99482.22;5014730;28;20113;-64
2021/04/20 11:10:14;;;;;;;4.80;3.85;;;;;;;18.72;33.53;99475.63;5014522;28;20038;-64
2021/04/20 11:12:47;;;;;;;5.53;3.90;;;;;;;19.09;34.34;99474.06;5013315;28;20444;-64
2021/04/20 11:15:22;;;;;;;4.68;3.60;;;;;;;19.67;32.71;99472.13;5013081;28;20037;-64
2021/04/20 11:17:54;;;;;;;5.82;4.40;;;;;;;18.67;32.94;99472.97;5014543;28;20080;-65
2021/04/20 11:20:31;;;;;;;4.22;3.42;;;;;;;19.07;34.04;99465.44;4996775;28;20026;-64
2021/04/20 11:23:09;;;;;;;4.40;3.70;;;;;;;18.42;32.87;99465.09;5014719;28;20092;-64
2021/04/20 11:25:40;;;;;;;4.47;3.47;;;;;;;19.07;31.61;99460.00;5014314;28;20076;-64
2021/04/20 11:28:17;;;;;;;4.00;3.33;;;;;;;18.40;33.75;99456.47;5014402;28;20033;-64
2021/04/20 11:30:51;;;;;;;3.95;3.10;;;;;;;18.95;31.89;99456.91;5012771;28;20054;-63
2021/04/20 11:33:20;;;;;;;3.70;3.03;;;;;;;18.07;32.20;99456.22;4997862;28;20026;-63
2021/04/20 11:35:46;;;;;;;4.13;3.40;;;;;;;17.18;34.75;99454.47;5012965;28;20038;-65
2021/04/20 11:38:13;;;;;;;4.20;3.08;;;;;;;18.42;33.43;99448.81;5013260;28;20022;-63
2021/04/20 11:40:42;;;;;;;5.25;3.30;;;;;;;18.33;32.55;99449.47;5012701;28;20042;-64
2021/04/20 11:43:11;;;;;;;6.53;3.40;;;;;;;18.28;33.96;99437.88;4996976;28;20393;-63
2021/04/20 11:45:38;;;;;;;4.47;3.60;;;;;;;18.56;32.84;99443.50;5012534;28;20038;-63
2021/04/20 11:48:14;;;;;;;4.40;3.55;;;;;;;18.29;34.34;99434.84;4996665;28;20057;-64
2021/04/20 11:50:54;;;;;;;4.35;3.50;;;;;;;16.73;34.88;99437.38;5013906;28;20042;-64